Time;durP1;ratioP1;P1;durP2;ratioP2;P2;SDS_P1;SDS_P2;PMS_P1;PMS_P2;Temp;Humidity;BMP_temperature;BMP_pressure;BME280_temperature;BME280_humidity;BME280_pressure;Samples;Min_cycle;Max_cycle;Signal;HPM_P1;HPM_P2
2022/08/12 00:44:14;;;;;;;4.20;3.63;;;;;;;22.76;53.04;94705.66;4161697;28;20030;-68
2022/08/12 00:46:31;;;;;;;4.15;3.75;;;;;;;22.77;52.78;94712.59;4171521;28;20064;-68
2022/08/12 00:48:34;;;;;;;5.35;3.63;;;;;;;22.66;53.16;94700.09;4176139;28;20056;-69
2022/08/12 00:50:38;;;;;;;6.18;3.78;;;;;;;22.67;53.27;94705.19;4143667;28;20441;-67
2022/08/12 00:52:40;;;;;;;4.10;3.70;;;;;;;22.64;53.29;94697.63;4161421;28;20059;-67
2022/08/12 00:55:02;;;;;;;6.05;4.07;;;;;;;22.65;52.91;94706.44;4161779;28;20053;-67
2022/08/12 00:57:07;;;;;;;7.00;4.60;;;;;;;22.59;53.41;94699.41;4160452;28;20052;-67
2022/08/12 00:59:10;;;;;;;4.55;4.15;;;;;;;22.57;53.39;94701.50;4163425;28;20511;-67
2022/08/12 01:01:13;;;;;;;6.18;4.20;;;;;;;22.51;53.75;94710.44;4156292;28;20083;-69
2022/08/12 01:03:18;;;;;;;4.93;4.43;;;;;;;22.36;54.08;94714.38;4174339;28;20061;-68
2022/08/12 01:12:35;;;;;;;6.32;3.92;;;;;;;22.42;53.96;94718.78;4166857;28;20499;-69
2022/08/12 01:14:37;;;;;;;;;;;;;;;22.48;53.84;94725.88;4177848;28;20052;-68
2022/08/12 01:16:39;;;;;;;6.43;4.20;;;;;;;22.44;54.51;94730.03;4177447;28;19929;-67
2022/08/12 01:18:41;;;;;;;4.90;4.20;;;;;;;22.30;54.68;94723.28;4159005;28;20401;-68
2022/08/12 01:20:51;;;;;;;5.97;4.30;;;;;;;22.02;55.05;94730.06;4177304;28;20056;-68
2022/08/12 01:23:18;;;;;;;5.93;3.70;;;;;;;21.41;57.06;94736.50;4175746;28;20623;-67
2022/08/12 01:25:22;;;;;;;5.63;4.40;;;;;;;21.45;57.27;94737.69;4155410;28;20065;-68
2022/08/12 01:27:26;;;;;;;5.13;4.28;;;;;;;21.40;57.65;94741.00;4144249;28;20050;-68
2022/08/12 01:29:35;;;;;;;7.25;4.80;;;;;;;21.52;57.17;94737.59;4161725;28;20068;-69
2022/08/12 01:31:49;;;;;;;5.18;4.65;;;;;;;21.63;56.89;94728.81;4162648;28;20632;-68
2022/08/12 01:34:04;;;;;;;6.20;4.80;;;;;;;21.76;56.46;94733.16;4149756;28;20049;-69
2022/08/12 01:36:27;;;;;;;6.20;4.75;;;;;;;21.83;56.15;94726.69;4178104;28;20064;-70
2022/08/12 01:38:33;;;;;;;7.18;4.72;;;;;;;21.88;55.95;94726.81;4174438;28;20087;-68
2022/08/12 01:40:37;;;;;;;5.03;4.38;;;;;;;21.93;55.85;94728.78;4160299;28;20073;-68
2022/08/12 01:42:49;;;;;;;5.28;4.45;;;;;;;21.97;56.05;94726.50;4159485;28;20057;-68
2022/08/12 01:44:54;;;;;;;6.72;5.32;;;;;;;22.04;55.74;94729.84;4176492;28;20392;-70
2022/08/12 01:47:05;;;;;;;5.00;4.25;;;;;;;22.05;55.48;94720.81;4170080;28;20077;-67
2022/08/12 01:49:20;;;;;;;5.57;4.47;;;;;;;22.07;55.36;94727.56;4158448;28;20132;-69
2022/08/12 01:51:38;;;;;;;5.07;4.53;;;;;;;22.01;55.76;94723.13;4173974;28;20148;-67
2022/08/12 01:54:05;;;;;;;5.50;4.43;;;;;;;21.87;56.09;94713.69;4160727;28;20519;-68
2022/08/12 01:56:09;;;;;;;8.40;5.32;;;;;;;21.19;58.11;94722.84;4157098;28;20050;-68
2022/08/12 01:58:23;;;;;;;6.32;4.93;;;;;;;20.90;59.02;94719.88;4159045;28;20140;-69
2022/08/12 02:00:34;;;;;;;7.40;5.28;;;;;;;20.64;60.00;94718.34;4160969;28;20051;-68
2022/08/12 02:03:03;;;;;;;6.47;4.85;;;;;;;20.70;59.65;94714.00;4145551;28;20050;-69
2022/08/12 02:13:08;;;;;;;5.43;4.90;;;;;;;21.08;58.46;94703.09;4168493;28;20053;-69
2022/08/12 02:15:20;;;;;;;5.88;4.80;;;;;;;21.23;57.92;94713.34;4156156;28;20057;-68
2022/08/12 02:17:34;;;;;;;6.93;5.13;;;;;;;21.33;57.75;94715.47;4158791;28;20054;-68
2022/08/12 02:20:28;;;;;;;6.45;3.88;;;;;;;21.40;56.71;94711.69;4175995;28;20449;-69
2022/08/12 02:22:51;;;;;;;6.97;4.45;;;;;;;21.41;56.64;94715.16;4170099;28;20053;-68
2022/08/12 02:25:06;;;;;;;8.38;4.85;;;;;;;21.43;56.79;94705.94;4152765;28;20128;-68
2022/08/12 02:27:09;;;;;;;10.68;4.53;;;;;;;21.50;56.46;94702.38;4176080;28;20052;-69
2022/08/12 02:29:12;;;;;;;7.57;4.65;;;;;;;21.58;56.22;94704.72;4158763;28;20132;-67
2022/08/12 02:31:14;;;;;;;7.60;4.68;;;;;;;21.66;55.97;94702.53;4175855;28;20111;-68
2022/08/12 02:33:17;;;;;;;8.82;4.47;;;;;;;21.76;56.03;94701.16;4158057;28;20071;-68
2022/08/12 02:35:21;;;;;;;7.38;5.07;;;;;;;21.85;55.88;94705.13;4142148;28;20453;-69
2022/08/12 02:37:24;;;;;;;5.32;4.10;;;;;;;21.94;55.62;94703.75;4175249;28;20697;-68
2022/08/12 02:39:29;;;;;;;12.25;4.63;;;;;;;21.96;55.72;94700.84;4175689;28;20132;-68
2022/08/12 02:41:31;;;;;;;8.35;4.40;;;;;;;21.88;56.19;94704.66;4175717;28;20056;-67
2022/08/12 02:43:53;;;;;;;7.13;4.97;;;;;;;21.76;56.95;94706.50;4147760;28;20049;-67
2022/08/12 02:46:05;;;;;;;6.07;4.18;;;;;;;21.66;57.04;94702.53;4142109;28;20461;-68
2022/08/12 02:48:29;;;;;;;6.45;4.82;;;;;;;21.58;57.97;94702.06;4176035;28;20476;-67
2022/08/12 02:50:33;;;;;;;8.00;4.88;;;;;;;21.56;57.68;94706.78;4161471;28;20081;-68
2022/08/12 02:52:36;;;;;;;5.40;4.68;;;;;;;21.59;57.84;94695.66;4159343;28;20120;-68
2022/08/12 02:54:40;;;;;;;5.93;4.55;;;;;;;21.66;57.96;94702.53;4169160;28;20135;-67
2022/08/12 02:56:42;;;;;;;8.18;4.28;;;;;;;21.62;58.32;94700.56;4145319;28;20133;-69
2022/08/12 02:58:52;;;;;;;5.20;4.65;;;;;;;21.67;58.38;94709.47;4176141;28;20068;-68
2022/08/12 03:00:53;;;;;;;9.98;4.50;;;;;;;21.65;59.40;94700.91;4174088;28;20057;-68
2022/08/12 03:02:59;;;;;;;6.50;4.50;;;;;;;21.63;60.40;94708.31;4157771;28;20728;-68
2022/08/12 03:05:02;;;;;;;6.53;4.70;;;;;;;21.47;61.57;94708.97;4157586;28;20061;-68
2022/08/12 03:07:13;;;;;;;7.05;4.97;;;;;;;21.43;61.71;94713.94;4175119;28;20045;-68
2022/08/12 03:09:16;;;;;;;5.82;4.75;;;;;;;21.42;62.64;94712.31;4176146;28;20092;-69
2022/08/12 03:11:35;;;;;;;10.32;4.93;;;;;;;21.45;63.35;94708.38;4171026;28;20339;-68
2022/08/12 03:13:50;;;;;;;10.40;5.50;;;;;;;21.45;63.46;94708.38;4151987;28;20083;-68
2022/08/12 03:15:54;;;;;;;10.27;5.63;;;;;;;21.45;63.84;94714.50;4157830;28;20056;-68
2022/08/12 03:18:13;;;;;;;8.35;4.90;;;;;;;21.38;64.02;94715.59;4169972;28;20052;-67
2022/08/12 03:20:29;;;;;;;7.65;4.95;;;;;;;21.38;64.38;94713.78;4147828;28;20123;-68
2022/08/12 03:22:39;;;;;;;7.25;4.97;;;;;;;21.39;65.07;94710.06;4157301;28;20341;-69
2022/08/12 03:24:44;;;;;;;8.30;5.40;;;;;;;21.38;64.89;94708.44;4171246;28;20403;-69
2022/08/12 03:26:47;;;;;;;9.77;6.32;;;;;;;21.42;64.83;94711.47;4171259;28;20492;-67
2022/08/12 03:28:49;;;;;;;11.43;6.47;;;;;;;21.26;65.26;94723.56;4152527;28;20049;-67
2022/08/12 03:30:53;;;;;;;7.53;5.50;;;;;;;21.25;65.50;94720.09;4165893;28;20182;-67
2022/08/12 03:32:59;;;;;;;6.43;5.63;;;;;;;21.23;65.43;94727.50;4151003;28;20041;-69
2022/08/12 03:35:06;;;;;;;9.27;6.00;;;;;;;20.99;66.74;94718.56;4169903;28;20078;-68
2022/08/12 03:37:09;;;;;;;8.75;6.25;;;;;;;20.92;67.16;94719.69;4168104;28;20090;-69
2022/08/12 04:00:39;;;;;;;12.80;6.88;;;;;;;20.35;70.79;94733.94;4159580;28;20493;-67
2022/08/12 04:02:42;;;;;;;8.38;6.25;;;;;;;20.43;70.53;94738.16;4171963;28;20045;-69
2022/08/12 04:04:45;;;;;;;9.47;7.07;;;;;;;20.55;70.15;94731.09;4171950;28;20049;-69
2022/08/12 04:06:47;;;;;;;10.25;7.22;;;;;;;20.59;69.41;94734.16;4154214;28;20691;-69
2022/08/12 04:08:50;;;;;;;10.85;6.60;;;;;;;20.59;69.44;94727.00;4172200;28;20087;-68
2022/08/12 04:13:24;;;;;;;9.52;6.43;;;;;;;20.60;69.25;94733.13;4167549;28;20645;-68
2022/08/12 04:15:27;;;;;;;9.00;7.13;;;;;;;20.46;69.70;94733.22;4167455;28;20053;-68
2022/08/12 04:18:20;;;;;;;8.98;6.65;;;;;;;20.20;70.14;94738.78;4150977;28;20448;-67
2022/08/12 04:20:35;;;;;;;12.00;7.15;;;;;;;19.83;72.03;94733.31;4102283;28;20063;-69
2022/08/12 04:22:38;;;;;;;7.72;6.05;;;;;;;19.89;72.03;94743.09;4153104;28;20131;-69
2022/08/12 04:24:40;;;;;;;8.98;6.55;;;;;;;19.73;72.84;94736.47;4152281;28;20083;-67
2022/08/12 04:26:43;;;;;;;9.13;7.28;;;;;;;19.74;72.77;94738.09;4170510;28;20049;-68
2022/08/12 04:28:46;;;;;;;;;;;;;;;19.81;73.13;94738.03;4173180;28;20057;-71
2022/08/12 04:30:48;;;;;;;10.15;7.70;;;;;;;19.91;73.27;94737.59;4166578;28;19943;-69
2022/08/12 04:32:50;;;;;;;7.90;6.80;;;;;;;19.97;72.95;94734.88;4151194;28;20064;-67
2022/08/12 04:34:55;;;;;;;9.43;7.82;;;;;;;20.08;73.32;94735.22;4173896;28;20416;-67
2022/08/12 04:36:57;;;;;;;12.57;8.02;;;;;;;20.14;72.82;94737.00;4165692;28;20053;-68
2022/08/12 04:38:59;;;;;;;8.27;7.40;;;;;;;20.23;73.27;94725.03;4151484;28;20061;-66
2022/08/12 04:41:02;;;;;;;12.23;8.13;;;;;;;20.42;73.30;94723.25;4159429;28;20053;-70
2022/08/12 04:43:04;;;;;;;10.55;8.13;;;;;;;20.55;72.67;94727.63;4154857;28;20129;-68
2022/08/12 04:45:06;;;;;;;8.98;6.95;;;;;;;20.68;72.29;94735.50;4155535;28;20068;-70
2022/08/12 04:47:18;;;;;;;8.63;7.60;;;;;;;20.84;71.93;94734.91;4147636;28;20050;-67
2022/08/12 04:49:21;;;;;;;12.55;7.68;;;;;;;20.95;71.17;94737.84;4150642;28;20388;-68
2022/08/12 04:51:23;;;;;;;10.95;8.10;;;;;;;21.02;70.90;94733.28;4151124;28;20237;-69
2022/08/12 04:53:25;;;;;;;10.05;7.47;;;;;;;21.09;70.57;94727.88;4156525;28;20057;-69
2022/08/12 04:55:30;;;;;;;10.90;8.18;;;;;;;21.13;69.81;94727.19;4156330;28;20080;-68
2022/08/12 04:57:34;;;;;;;11.55;7.95;;;;;;;21.19;69.26;94730.84;4134267;28;20417;-69
2022/08/12 04:59:36;;;;;;;8.70;7.15;;;;;;;21.23;69.09;94730.16;4145494;28;20088;-69
2022/08/12 05:01:51;;;;;;;11.55;7.95;;;;;;;20.92;70.10;94730.31;4145140;28;20049;-70
2022/08/12 05:03:53;;;;;;;;;;;;;;;20.73;70.42;94729.50;4145921;28;20454;-72
2022/08/12 05:05:58;;;;;;;10.57;8.35;;;;;;;20.63;71.51;94725.50;4145186;28;19940;-69
2022/08/12 05:08:01;;;;;;;9.68;7.90;;;;;;;20.62;71.86;94725.72;4157193;28;20045;-68
2022/08/12 05:10:03;;;;;;;10.23;8.77;;;;;;;20.33;72.80;94724.56;4148058;28;20864;-68
2022/08/12 05:12:06;;;;;;;9.68;8.00;;;;;;;20.18;73.10;94730.22;4147827;28;20134;-69
2022/08/12 05:14:08;;;;;;;13.97;9.67;;;;;;;19.94;74.52;94726.50;4159906;28;20088;-69
2022/08/12 05:16:10;;;;;;;10.40;9.20;;;;;;;19.86;74.72;94729.44;4160054;28;20140;-66
2022/08/12 05:18:13;;;;;;;11.13;8.75;;;;;;;19.87;74.84;94736.38;4161000;28;20110;-69
2022/08/12 05:20:21;;;;;;;11.68;9.45;;;;;;;19.80;75.22;94736.44;4147942;28;20042;-69
2022/08/12 05:22:24;;;;;;;10.18;8.77;;;;;;;19.86;74.50;94735.56;4159093;28;20060;-69
2022/08/12 05:24:26;;;;;;;10.82;8.30;;;;;;;19.91;75.00;94734.91;4161293;28;20076;-69
2022/08/12 05:26:28;;;;;;;13.32;9.50;;;;;;;20.01;74.78;94738.72;4159178;28;20137;-68
2022/08/12 05:28:30;;;;;;;11.95;8.77;;;;;;;19.84;74.38;94740.28;4154372;28;20057;-70
2022/08/12 05:30:33;;;;;;;9.57;8.65;;;;;;;19.90;74.38;94738.63;4161541;28;20088;-66
2022/08/12 05:32:35;;;;;;;10.13;8.67;;;;;;;20.03;74.18;94739.31;4159452;28;20409;-69
2022/08/12 05:34:37;;;;;;;10.37;9.27;;;;;;;20.13;73.68;94740.69;4159074;28;20458;-69
2022/08/12 05:36:43;;;;;;;9.48;8.48;;;;;;;20.07;73.88;94741.53;4160536;28;20129;-69
2022/08/12 05:38:58;;;;;;;13.70;10.25;;;;;;;19.98;74.49;94738.34;4168936;28;20052;-67
2022/08/12 05:41:01;;;;;;;12.48;10.63;;;;;;;20.00;74.66;94750.41;4176059;28;20211;-67
2022/08/12 05:43:04;;;;;;;11.85;9.85;;;;;;;20.13;74.91;94743.34;4176791;28;20099;-67
2022/08/12 05:45:07;;;;;;;19.75;15.90;;;;;;;20.35;75.05;94747.25;4175699;28;20060;-69
2022/08/12 05:47:11;;;;;;;11.48;10.27;;;;;;;20.58;74.88;94749.28;4156025;28;20312;-68
2022/08/12 05:49:13;;;;;;;13.02;10.50;;;;;;;20.80;73.82;94751.53;4177145;28;20464;-69
2022/08/12 05:51:16;;;;;;;14.45;9.90;;;;;;;20.84;72.61;94748.22;4176915;28;20051;-68
2022/08/12 05:53:18;;;;;;;12.00;10.53;;;;;;;20.85;72.45;94743.72;4158284;28;20061;-69
2022/08/12 05:55:21;;;;;;;11.20;9.35;;;;;;;20.99;72.74;94747.03;4175821;28;20749;-68
2022/08/12 05:57:28;;;;;;;10.32;9.30;;;;;;;21.14;72.39;94747.47;4176958;28;20053;-70
2022/08/12 05:59:31;;;;;;;13.70;10.30;;;;;;;21.16;71.49;94750.72;4177535;28;20834;-70
2022/08/12 06:01:33;;;;;;;14.32;10.40;;;;;;;21.22;71.51;94752.50;4177558;28;20049;-70
2022/08/12 06:04:01;;;;;;;12.10;9.95;;;;;;;21.28;71.98;94743.59;4167099;28;20694;-67
2022/08/12 06:06:05;;;;;;;11.05;9.82;;;;;;;21.42;71.88;94746.97;4167074;28;20049;-70
2022/08/12 06:08:07;;;;;;;12.85;10.13;;;;;;;21.55;70.92;94745.13;4173889;28;20378;-68
2022/08/12 06:10:10;;;;;;;11.48;9.38;;;;;;;21.47;69.13;94751.59;4175669;28;20604;-70
2022/08/12 06:12:20;;;;;;;11.85;8.90;;;;;;;21.17;67.36;94747.03;4177031;28;20057;-69
2022/08/12 06:14:22;;;;;;;10.73;7.97;;;;;;;21.11;68.67;94753.25;4176802;28;20066;-69
2022/08/12 06:16:25;;;;;;;10.63;8.40;;;;;;;21.13;69.21;94743.19;4177127;28;20091;-71
2022/08/12 06:18:29;;;;;;;9.95;8.65;;;;;;;21.19;68.34;94750.28;4156930;28;20088;-70
2022/08/12 06:20:32;;;;;;;8.77;7.88;;;;;;;21.28;68.52;94750.78;4175774;28;20051;-68
2022/08/12 06:22:34;;;;;;;9.95;7.97;;;;;;;21.41;68.33;94753.31;4175874;28;20693;-69
2022/08/12 06:24:36;;;;;;;10.52;7.88;;;;;;;21.52;67.27;94750.94;4165591;28;20053;-69
2022/08/12 06:26:39;;;;;;;14.25;8.63;;;;;;;21.59;68.09;94752.44;4173224;28;20130;-70
2022/08/12 06:28:42;;;;;;;10.13;7.65;;;;;;;21.73;67.97;94742.44;4171832;28;20052;-67
2022/08/12 06:30:45;;;;;;;15.88;12.93;;;;;;;21.78;67.20;94739.06;4160396;28;20041;-68
2022/08/12 06:33:07;;;;;;;12.05;10.13;;;;;;;21.89;67.65;94744.44;4174646;28;20122;-68
2022/08/12 06:35:25;;;;;;;11.55;8.00;;;;;;;21.98;66.52;94734.25;4176670;28;20049;-68
2022/08/12 06:37:51;;;;;;;9.48;7.63;;;;;;;22.13;67.18;94743.66;4173603;28;20174;-69
2022/08/12 06:39:57;;;;;;;11.55;7.68;;;;;;;22.24;67.08;94745.56;4157597;28;20493;-67
2022/08/12 06:44:42;;;;;;;8.05;5.90;;;;;;;22.33;64.79;94741.53;4166805;28;20053;-70
2022/08/12 06:46:44;;;;;;;8.75;5.78;;;;;;;22.39;66.09;94750.44;4175999;28;20055;-68
2022/08/12 06:48:48;;;;;;;7.93;5.82;;;;;;;22.47;65.73;94742.91;4175370;28;20049;-68
2022/08/12 06:50:50;;;;;;;6.63;5.75;;;;;;;22.49;65.33;94738.16;4179718;28;20127;-70
2022/08/12 06:52:52;;;;;;;7.72;5.47;;;;;;;22.57;64.90;94744.22;4176246;28;20380;-71
2022/08/12 06:54:54;;;;;;;5.80;4.55;;;;;;;22.62;63.94;94737.09;4158873;28;20057;-68
2022/08/12 06:56:56;;;;;;;9.30;7.50;;;;;;;22.68;63.94;94746.06;4160565;28;20049;-68
2022/08/12 06:59:20;;;;;;;8.48;6.18;;;;;;;22.76;64.00;94737.69;4160200;28;20099;-68
2022/08/12 07:01:24;;;;;;;8.68;4.65;;;;;;;22.85;63.58;94736.28;4164150;28;20130;-69
2022/08/12 07:03:27;;;;;;;5.70;4.72;;;;;;;22.85;61.99;94738.16;4161032;28;20456;-68
2022/08/12 07:05:30;;;;;;;5.30;4.68;;;;;;;22.69;62.08;94737.81;4164514;28;20586;-69
2022/08/12 07:07:32;;;;;;;6.40;4.75;;;;;;;22.60;63.13;94733.06;4166130;28;20103;-67
2022/08/12 07:09:37;;;;;;;8.90;5.60;;;;;;;22.64;63.32;94728.88;4159817;28;20063;-68
2022/08/12 07:11:59;;;;;;;7.80;4.65;;;;;;;22.69;63.59;94726.31;4172318;28;20099;-67
2022/08/12 07:14:03;;;;;;;9.38;4.78;;;;;;;22.81;63.77;94723.63;4145581;28;20075;-68
2022/08/12 07:45:50;;;;;;;;;;;;;;;23.05;59.25;94716.41;3908548;28;20147;-69
2022/08/12 07:47:52;;;;;;;8.30;6.55;;;;;;;22.95;59.93;94713.50;4168722;28;20397;-69
2022/08/12 07:49:55;;;;;;;12.00;6.80;;;;;;;23.05;59.40;94716.41;4159665;28;20121;-67
2022/08/12 07:52:06;;;;;;;7.80;6.32;;;;;;;23.21;59.62;94714.84;4171107;28;20478;-70
2022/08/12 07:54:11;;;;;;;13.30;10.13;;;;;;;23.22;59.08;94713.81;4174748;28;20056;-69
2022/08/12 07:56:13;;;;;;;7.05;6.25;;;;;;;23.33;58.94;94712.94;4166208;28;20435;-69
2022/08/12 07:58:15;;;;;;;9.60;6.30;;;;;;;23.45;57.88;94715.59;4154027;28;20117;-68
2022/08/12 08:00:17;;;;;;;11.05;5.78;;;;;;;23.44;58.13;94720.09;4172586;28;20495;-69
2022/08/12 08:02:19;;;;;;;10.30;5.80;;;;;;;23.39;57.84;94714.69;4159505;28;20115;-69
2022/08/12 08:06:48;;;;;;;11.45;5.50;;;;;;;23.30;57.86;94711.56;4160289;28;20132;-68
2022/08/12 08:08:50;;;;;;;6.35;4.82;;;;;;;23.42;57.43;94713.38;4169368;28;20165;-70
2022/08/12 08:13:19;;;;;;;7.57;4.00;;;;;;;23.55;55.06;94714.94;4130730;28;20065;-68
2022/08/12 08:15:26;;;;;;;6.00;4.03;;;;;;;23.66;55.38;94706.06;4159164;28;20057;-68
2022/08/12 08:18:01;;;;;;;5.63;4.18;;;;;;;23.78;54.44;94703.38;4163299;28;20056;-68
2022/08/12 08:20:09;;;;;;;10.18;3.78;;;;;;;23.88;54.96;94709.69;4126776;28;20113;-69
2022/08/12 08:22:11;;;;;;;5.53;3.55;;;;;;;23.88;54.09;94701.69;4177582;28;20081;-68
2022/08/12 08:24:13;;;;;;;6.28;3.72;;;;;;;23.89;54.27;94705.97;4160364;28;20140;-68
2022/08/12 08:26:15;;;;;;;4.85;3.95;;;;;;;23.92;53.95;94702.00;4177451;28;20126;-69
2022/08/12 08:28:17;;;;;;;5.38;3.63;;;;;;;23.73;52.77;94709.41;4177838;28;20061;-69
2022/08/12 08:30:19;;;;;;;5.93;3.85;;;;;;;23.65;53.16;94699.91;4176943;28;20049;-70
2022/08/12 08:32:23;;;;;;;4.95;3.47;;;;;;;23.65;53.92;94699.91;4174573;28;20073;-68
2022/08/12 08:34:28;;;;;;;5.53;4.07;;;;;;;23.71;53.43;94695.47;4177441;28;20115;-69
2022/08/12 08:36:51;;;;;;;4.65;3.47;;;;;;;23.76;54.14;94702.78;4167298;28;20052;-70
2022/08/12 08:38:53;;;;;;;4.53;3.40;;;;;;;23.91;53.90;94695.84;4178479;28;20057;-69
2022/08/12 08:43:42;;;;;;;6.60;3.42;;;;;;;24.11;53.31;94686.50;4166124;28;20053;-68
2022/08/12 08:45:47;;;;;;;5.72;3.80;;;;;;;24.15;52.46;94681.50;4176880;28;20440;-68
2022/08/12 08:47:50;;;;;;;5.28;3.75;;;;;;;24.25;52.58;94684.31;4177948;28;20096;-67
2022/08/12 08:49:59;;;;;;;3.95;3.40;;;;;;;24.36;52.34;94686.09;4177490;28;20057;-67
2022/08/12 08:52:03;;;;;;;5.22;3.15;;;;;;;24.50;52.11;94690.09;4176969;28;20098;-69
2022/08/12 08:54:07;;;;;;;6.45;3.08;;;;;;;24.63;51.30;94688.09;4177519;28;20088;-70
2022/08/12 08:56:10;;;;;;;5.97;3.65;;;;;;;24.70;51.50;94681.50;4169372;28;20049;-67
2022/08/12 08:58:14;;;;;;;5.88;3.67;;;;;;;24.71;50.58;94682.31;4161929;28;20408;-69
2022/08/12 09:00:18;;;;;;;5.53;3.70;;;;;;;24.86;51.21;94684.38;4171608;28;20397;-68
2022/08/12 09:02:20;;;;;;;5.25;3.78;;;;;;;24.92;51.10;94684.19;4177591;28;20045;-69
2022/08/12 09:04:25;;;;;;;7.07;3.92;;;;;;;24.94;50.09;94682.09;4177776;28;20107;-68
2022/08/12 09:06:47;;;;;;;3.75;3.22;;;;;;;25.22;49.25;94680.31;4176548;28;20049;-69
2022/08/12 09:08:56;;;;;;;7.13;4.50;;;;;;;25.47;49.60;94682.47;4178206;28;20107;-68
2022/08/12 09:13:26;;;;;;;8.93;3.88;;;;;;;25.52;47.05;94682.50;4170893;28;20136;-68
2022/08/12 09:13:41;;;;;;;3.97;3.47;;;;;;;25.42;47.66;94677.03;4167743;28;20477;-70
2022/08/12 09:16:05;;;;;;;4.78;3.42;;;;;;;25.24;47.65;94678.19;4176819;28;20511;-68
2022/08/12 09:18:10;;;;;;;9.18;3.38;;;;;;;25.16;47.61;94673.22;4167333;28;20140;-68
2022/08/12 09:20:15;;;;;;;4.32;3.22;;;;;;;25.23;48.00;94671.22;4175975;28;20552;-70
2022/08/12 09:22:19;;;;;;;5.65;3.58;;;;;;;25.38;46.79;94669.75;4171884;28;20152;-69
2022/08/12 09:24:21;;;;;;;6.75;3.40;;;;;;;24.93;46.35;94669.75;4174565;28;20163;-68
2022/08/12 09:26:30;;;;;;;6.00;3.70;;;;;;;25.13;46.89;94673.75;4169483;28;20056;-68
2022/08/12 09:28:49;;;;;;;4.95;3.42;;;;;;;25.07;46.62;94667.50;4166916;28;20294;-66
2022/08/12 09:30:58;;;;;;;5.85;3.92;;;;;;;25.18;47.50;94671.09;4171481;28;20059;-68
2022/08/12 09:33:00;;;;;;;6.57;4.20;;;;;;;25.28;46.94;94673.94;4167750;28;20099;-68
2022/08/12 09:35:32;;;;;;;4.93;3.45;;;;;;;25.33;46.38;94671.31;4166646;28;20045;-68
2022/08/12 09:37:46;;;;;;;5.43;3.30;;;;;;;25.41;47.11;94679.97;4164616;28;20052;-68
2022/08/12 09:39:59;;;;;;;6.80;3.78;;;;;;;25.16;46.92;94670.53;4152156;28;20165;-69
2022/08/12 09:47:46;;;;;;;3.97;3.58;;;;;;;25.17;46.87;94674.88;4177074;28;20087;-68
2022/08/12 09:50:00;;;;;;;4.18;3.30;;;;;;;25.40;47.04;94667.63;4177265;28;20049;-68
2022/08/12 09:52:03;;;;;;;3.22;2.90;;;;;;;25.68;46.25;94663.88;4175517;28;20053;-68
2022/08/12 09:54:07;;;;;;;5.05;4.00;;;;;;;25.86;45.36;94660.03;4176650;28;20525;-68
2022/08/12 09:56:31;;;;;;;4.57;3.13;;;;;;;26.20;44.04;94651.69;4176198;28;20518;-67
2022/08/12 09:58:52;;;;;;;8.40;6.25;;;;;;;26.44;43.58;94650.25;4176902;28;20098;-68
2022/08/12 10:01:03;;;;;;;4.95;3.50;;;;;;;26.32;43.28;94653.13;4176816;28;20119;-69
2022/08/12 10:03:15;;;;;;;5.53;3.10;;;;;;;26.25;43.54;94654.44;4176186;28;20049;-68
2022/08/12 10:05:35;;;;;;;5.28;3.10;;;;;;;25.88;43.45;94652.53;4144677;28;20123;-68
2022/08/12 10:07:57;;;;;;;6.97;3.13;;;;;;;25.73;44.49;94654.00;4157555;28;20357;-68
2022/08/12 10:09:58;;;;;;;5.32;3.40;;;;;;;25.76;44.20;94650.00;4175663;28;20056;-69
2022/08/12 10:14:33;;;;;;;3.78;3.20;;;;;;;25.86;44.44;94652.78;4169183;28;20061;-69
2022/08/12 10:16:42;;;;;;;7.75;3.38;;;;;;;25.91;44.23;94643.97;4164222;28;20060;-67
2022/08/12 10:18:46;;;;;;;3.67;3.17;;;;;;;25.99;44.94;94642.72;4173046;28;20049;-70
2022/08/12 10:20:53;;;;;;;5.57;3.50;;;;;;;26.09;44.60;94632.03;4160741;28;20049;-68
2022/08/12 10:22:58;;;;;;;4.18;3.60;;;;;;;26.24;44.44;94634.84;4159751;28;20058;-69
2022/08/12 10:30:01;;;;;;;7.68;4.32;;;;;;;26.46;42.70;94623.16;4160315;28;20072;-69
2022/08/12 10:32:23;;;;;;;5.03;3.85;;;;;;;26.42;42.93;94630.91;4166245;28;20044;-67
2022/08/12 10:34:46;;;;;;;6.30;3.92;;;;;;;26.51;43.53;94625.84;4169876;28;20053;-69
2022/08/12 10:36:59;;;;;;;8.40;6.15;;;;;;;26.49;43.47;94633.34;4159345;28;20045;-69
2022/08/12 10:39:21;;;;;;;5.20;4.00;;;;;;;26.52;43.86;94625.59;4162001;28;20049;-69
2022/08/12 10:44:11;;;;;;;4.65;3.50;;;;;;;26.77;43.52;94624.13;4175124;28;20049;-68
2022/08/12 10:46:18;;;;;;;5.38;3.50;;;;;;;26.79;43.44;94624.66;4170836;28;20704;-69
2022/08/12 10:48:22;;;;;;;6.28;3.38;;;;;;;26.74;42.84;94624.66;4161847;28;20442;-69
2022/08/12 10:50:35;;;;;;;7.05;3.67;;;;;;;26.79;42.88;94627.34;4163821;28;20045;-69
2022/08/12 10:52:58;;;;;;;4.07;3.20;;;;;;;26.86;43.21;94627.13;4160717;28;20537;-69
2022/08/12 10:55:00;;;;;;;3.63;3.03;;;;;;;26.90;42.55;94618.25;4171469;28;20049;-71
2022/08/12 10:57:08;;;;;;;3.00;2.70;;;;;;;26.89;42.05;94616.66;4164428;28;20132;-70
2022/08/12 10:59:30;;;;;;;4.38;3.38;;;;;;;26.90;42.46;94620.16;4162356;28;20111;-68
2022/08/12 11:01:52;;;;;;;5.20;3.22;;;;;;;26.91;42.61;94617.19;4154802;28;20098;-70
2022/08/12 11:04:15;;;;;;;5.43;3.13;;;;;;;26.98;42.85;94610.78;4162424;28;20053;-68
2022/08/12 11:06:36;;;;;;;3.65;3.17;;;;;;;27.02;42.67;94601.09;4163893;28;20080;-70
2022/08/12 11:08:59;;;;;;;6.53;3.28;;;;;;;27.03;42.38;94602.72;4162354;28;20126;-68
2022/08/12 11:11:09;;;;;;;3.88;2.72;;;;;;;27.09;42.26;94607.03;4169536;28;20554;-70
2022/08/12 11:13:18;;;;;;;3.85;3.13;;;;;;;27.13;41.52;94602.75;4164527;28;20049;-69
2022/08/12 11:15:41;;;;;;;4.40;3.00;;;;;;;27.20;41.62;94614.06;4163978;28;20044;-68
2022/08/12 11:18:02;;;;;;;3.42;2.92;;;;;;;27.35;41.36;94606.03;4165131;28;20053;-69
2022/08/12 11:20:06;;;;;;;3.00;2.70;;;;;;;27.39;41.56;94606.31;4160054;28;20067;-70
2022/08/12 11:22:12;;;;;;;3.15;2.58;;;;;;;27.48;41.34;94603.91;4157903;28;20325;-68
2022/08/12 11:24:33;;;;;;;;;;;;;;;27.45;41.19;94599.06;4167388;28;20103;-68
2022/08/12 11:26:37;;;;;;;4.65;2.92;;;;;;;27.40;41.77;94597.16;4172656;28;19924;-67
2022/08/12 11:28:39;;;;;;;4.00;3.60;;;;;;;27.37;42.23;94595.81;4175363;28;20111;-67
2022/08/12 11:30:42;;;;;;;4.70;3.58;;;;;;;27.35;41.73;94589.91;4157929;28;20069;-67
2022/08/12 11:32:44;;;;;;;3.70;3.28;;;;;;;27.40;41.38;94582.91;4170071;28;20045;-69
2022/08/12 11:34:47;;;;;;;3.95;3.22;;;;;;;27.42;41.38;94589.63;4155334;28;20163;-68
2022/08/12 11:36:59;;;;;;;5.45;3.15;;;;;;;27.50;41.41;94585.63;4174820;28;20076;-69
2022/08/12 11:39:05;;;;;;;5.55;2.97;;;;;;;27.61;41.29;94591.81;4158708;28;20061;-69
2022/08/12 11:41:07;;;;;;;4.88;3.40;;;;;;;27.65;41.46;94590.22;4173834;28;20120;-70
2022/08/12 11:43:09;;;;;;;4.33;3.33;;;;;;;27.83;41.00;94591.53;4175683;28;20407;-71
2022/08/12 11:45:21;;;;;;;3.90;3.42;;;;;;;27.97;39.23;94587.28;4175329;28;20397;-68
2022/08/12 11:47:23;;;;;;;5.47;3.22;;;;;;;27.92;39.94;94584.56;4173371;28;20080;-68
2022/08/12 11:49:26;;;;;;;4.93;3.40;;;;;;;27.64;40.19;94592.09;4159851;28;20045;-67
2022/08/12 11:51:34;;;;;;;3.20;2.90;;;;;;;27.51;40.61;94588.06;4159902;28;20061;-68
2022/08/12 11:53:40;;;;;;;6.82;3.63;;;;;;;27.29;40.31;94582.09;4157122;28;20083;-69
2022/08/12 11:56:00;;;;;;;4.25;3.72;;;;;;;27.12;40.01;94585.00;4158581;28;20045;-69
2022/08/12 11:58:02;;;;;;;3.85;3.10;;;;;;;27.03;40.72;94583.91;4168888;28;20148;-66
2022/08/12 12:00:25;;;;;;;4.97;3.13;;;;;;;27.06;41.35;94577.97;4161280;28;20124;-69
2022/08/12 12:02:47;;;;;;;6.25;3.53;;;;;;;27.17;41.31;94576.94;4168600;28;20045;-68
2022/08/12 12:04:50;;;;;;;5.60;3.60;;;;;;;27.24;41.00;94565.97;4175518;28;20140;-68
2022/08/12 12:06:54;;;;;;;4.22;3.55;;;;;;;27.25;41.17;94576.44;4145509;28;20041;-69
2022/08/12 12:08:56;;;;;;;5.15;2.97;;;;;;;27.29;41.00;94564.06;4160657;28;20198;-69
2022/08/12 12:11:01;;;;;;;4.28;3.22;;;;;;;27.28;41.31;94573.22;4169984;28;20105;-67
2022/08/12 12:13:10;;;;;;;4.13;3.10;;;;;;;27.30;40.84;94570.28;4164881;28;20163;-68
2022/08/12 12:15:32;;;;;;;4.30;2.95;;;;;;;27.33;40.98;94575.91;4162453;28;20145;-66
2022/08/12 12:17:41;;;;;;;3.70;2.88;;;;;;;27.24;40.96;94571.34;4175705;28;20135;-69
2022/08/12 12:19:43;;;;;;;4.60;3.20;;;;;;;27.24;40.46;94571.34;4164893;28;20624;-68